sensor_id;sensor_type;location;lat;lon;timestamp;noise_LAeq;noise_LA_min;noise_LA_max;noise_LA01;noise_LA95
48148;Laerm;29352;48.708;9.290;2023-03-24T00:00:20;53.47;52.29;54.54;;
48148;Laerm;29352;48.708;9.290;2023-03-24T00:02:49;53.41;52.16;54.43;;
48148;Laerm;29352;48.708;9.290;2023-03-24T00:05:19;53.57;52.47;54.58;;
48148;Laerm;29352;48.708;9.290;2023-03-24T00:07:46;53.59;52.29;54.58;;
48148;Laerm;29352;48.708;9.290;2023-03-24T00:10:18;53.53;52.42;54.69;;
48148;Laerm;29352;48.708;9.290;2023-03-24T00:12:45;53.57;52.47;54.65;;
48148;Laerm;29352;48.708;9.290;2023-03-24T00:15:22;53.96;52.76;55.14;;
48148;Laerm;29352;48.708;9.290;2023-03-24T00:17:49;54.07;52.88;55.07;;
48148;Laerm;29352;48.708;9.290;2023-03-24T00:20:18;53.77;52.41;54.83;;
48148;Laerm;29352;48.708;9.290;2023-03-24T00:22:48;53.67;52.41;54.69;;
48148;Laerm;29352;48.708;9.290;2023-03-24T00:25:22;53.89;52.53;55.04;;
48148;Laerm;29352;48.708;9.290;2023-03-24T00:27:48;54.05;52.98;55.20;;
48148;Laerm;29352;48.708;9.290;2023-03-24T00:30:17;53.92;52.82;54.95;;
48148;Laerm;29352;48.708;9.290;2023-03-24T00:32:44;53.85;52.82;54.87;;
48148;Laerm;29352;48.708;9.290;2023-03-24T00:35:14;53.73;52.47;55.11;;
48148;Laerm;29352;48.708;9.290;2023-03-24T00:37:41;53.70;52.53;54.73;;
48148;Laerm;29352;48.708;9.290;2023-03-24T00:40:15;53.58;52.47;54.65;;
48148;Laerm;29352;48.708;9.290;2023-03-24T00:42:44;53.50;52.41;54.51;;
48148;Laerm;29352;48.708;9.290;2023-03-24T00:45:14;53.48;52.36;54.66;;
48148;Laerm;29352;48.708;9.290;2023-03-24T00:47:40;53.44;52.09;54.31;;
48148;Laerm;29352;48.708;9.290;2023-03-24T00:50:15;53.41;52.16;54.51;;
48148;Laerm;29352;48.708;9.290;2023-03-24T00:52:42;53.39;52.16;54.27;;
48148;Laerm;29352;48.708;9.290;2023-03-24T00:55:13;53.38;52.29;54.35;;
48148;Laerm;29352;48.708;9.290;2023-03-24T00:57:43;53.38;52.35;54.58;;
48148;Laerm;29352;48.708;9.290;2023-03-24T01:00:21;53.36;52.16;54.35;;
48148;Laerm;29352;48.708;9.290;2023-03-24T01:02:50;53.35;52.03;54.39;;
48148;Laerm;29352;48.708;9.290;2023-03-24T01:05:28;53.34;52.22;54.35;;
48148;Laerm;29352;48.708;9.290;2023-03-24T01:07:59;53.34;52.09;54.31;;
48148;Laerm;29352;48.708;9.290;2023-03-24T01:10:32;53.33;52.13;54.47;;
48148;Laerm;29352;48.708;9.290;2023-03-24T01:12:59;53.34;52.22;54.39;;
48148;Laerm;29352;48.708;9.290;2023-03-24T01:15:30;53.33;52.16;54.23;;
48148;Laerm;29352;48.708;9.290;2023-03-24T01:17:57;53.31;52.16;54.27;;
48148;Laerm;29352;48.708;9.290;2023-03-24T01:20:27;53.32;52.16;54.39;;
48148;Laerm;29352;48.708;9.290;2023-03-24T01:22:58;53.33;52.22;54.43;;
48148;Laerm;29352;48.708;9.290;2023-03-24T01:25:25;53.33;52.29;54.47;;
48148;Laerm;29352;48.708;9.290;2023-03-24T01:27:52;53.31;52.16;54.39;;
48148;Laerm;29352;48.708;9.290;2023-03-24T01:30:23;53.32;52.09;54.35;;
48148;Laerm;29352;48.708;9.290;2023-03-24T01:32:50;53.31;52.03;54.23;;
48148;Laerm;29352;48.708;9.290;2023-03-24T01:35:17;53.32;52.22;54.35;;
48148;Laerm;29352;48.708;9.290;2023-03-24T01:37:43;53.37;52.22;54.52;;
48148;Laerm;29352;48.708;9.290;2023-03-24T01:40:21;53.50;52.41;54.47;;
48148;Laerm;29352;48.708;9.290;2023-03-24T01:42:47;53.49;52.35;54.62;;
48148;Laerm;29352;48.708;9.290;2023-03-24T01:48:13;53.88;52.93;54.90;;
48148;Laerm;29352;48.708;9.290;2023-03-24T01:50:49;53.85;52.71;54.83;;
48148;Laerm;29352;48.708;9.290;2023-03-24T01:53:16;53.69;52.53;54.62;;
48148;Laerm;29352;48.708;9.290;2023-03-24T01:55:47;53.86;52.71;54.80;;
48148;Laerm;29352;48.708;9.290;2023-03-24T01:58:13;53.82;52.65;55.04;;
48148;Laerm;29352;48.708;9.290;2023-03-24T02:00:40;53.70;52.29;54.83;;
48148;Laerm;29352;48.708;9.290;2023-03-24T02:03:15;53.56;52.47;54.58;;
48148;Laerm;29352;48.708;9.290;2023-03-24T02:05:46;53.64;52.47;54.94;;
48148;Laerm;29352;48.708;9.290;2023-03-24T02:10:52;53.88;52.82;54.90;;
48148;Laerm;29352;48.708;9.290;2023-03-24T02:13:20;53.94;52.88;54.97;;
48148;Laerm;29352;48.708;9.290;2023-03-24T02:19:28;53.85;52.53;54.90;;
48148;Laerm;29352;48.708;9.290;2023-03-24T02:42:24;53.50;52.47;54.51;;
48148;Laerm;29352;48.708;9.290;2023-03-24T02:53:16;53.44;52.22;54.47;;
48148;Laerm;29352;48.708;9.290;2023-03-24T02:56:08;53.44;52.22;54.47;;
48148;Laerm;29352;48.708;9.290;2023-03-24T02:58:51;53.43;52.29;54.35;;
48148;Laerm;29352;48.708;9.290;2023-03-24T03:01:27;53.43;52.35;54.43;;
48148;Laerm;29352;48.708;9.290;2023-03-24T03:04:08;53.42;52.29;54.47;;
48148;Laerm;29352;48.708;9.290;2023-03-24T03:06:42;53.45;52.22;54.51;;
48148;Laerm;29352;48.708;9.290;2023-03-24T03:09:15;53.48;52.41;54.54;;
48148;Laerm;29352;48.708;9.290;2023-03-24T03:11:49;53.43;52.29;54.51;;
48148;Laerm;29352;48.708;9.290;2023-03-24T03:14:37;53.43;52.22;54.51;;
48148;Laerm;29352;48.708;9.290;2023-03-24T03:17:17;53.45;52.16;54.43;;
48148;Laerm;29352;48.708;9.290;2023-03-24T03:20:13;53.48;52.41;54.51;;
48148;Laerm;29352;48.708;9.290;2023-03-24T03:22:55;53.46;52.41;54.35;;
48148;Laerm;29352;48.708;9.290;2023-03-24T03:25:32;53.45;52.47;54.65;;
48148;Laerm;29352;48.708;9.290;2023-03-24T03:28:05;53.44;52.29;54.39;;
48148;Laerm;29352;48.708;9.290;2023-03-24T03:30:47;53.42;52.29;54.62;;
48148;Laerm;29352;48.708;9.290;2023-03-24T03:33:21;53.40;52.29;54.51;;
48148;Laerm;29352;48.708;9.290;2023-03-24T03:36:07;53.39;52.22;54.47;;
48148;Laerm;29352;48.708;9.290;2023-03-24T03:38:55;53.40;52.29;54.73;;
48148;Laerm;29352;48.708;9.290;2023-03-24T03:41:25;53.39;52.16;54.54;;
48148;Laerm;29352;48.708;9.290;2023-03-24T03:43:51;53.39;52.16;54.35;;
48148;Laerm;29352;48.708;9.290;2023-03-24T03:46:18;53.38;52.35;54.39;;
48148;Laerm;29352;48.708;9.290;2023-03-24T03:48:45;53.38;52.16;54.43;;
48148;Laerm;29352;48.708;9.290;2023-03-24T03:51:13;53.37;52.09;54.39;;
48148;Laerm;29352;48.708;9.290;2023-03-24T03:53:46;53.36;52.22;54.31;;
48148;Laerm;29352;48.708;9.290;2023-03-24T03:56:17;53.37;52.22;54.47;;
48148;Laerm;29352;48.708;9.290;2023-03-24T03:58:45;53.39;52.29;54.51;;
48148;Laerm;29352;48.708;9.290;2023-03-24T04:01:19;53.38;52.09;54.47;;
48148;Laerm;29352;48.708;9.290;2023-03-24T04:09:40;53.38;52.22;54.69;;
48148;Laerm;29352;48.708;9.290;2023-03-24T04:15:10;53.36;52.22;54.23;;
48148;Laerm;29352;48.708;9.290;2023-03-24T04:18:05;53.37;51.89;54.35;;
48148;Laerm;29352;48.708;9.290;2023-03-24T04:23:48;53.39;52.35;54.38;;
48148;Laerm;29352;48.708;9.290;2023-03-24T04:26:27;53.37;52.22;54.35;;
48148;Laerm;29352;48.708;9.290;2023-03-24T04:31:52;53.42;52.22;54.35;;
48148;Laerm;29352;48.708;9.290;2023-03-24T04:34:45;53.58;52.29;54.69;;
48148;Laerm;29352;48.708;9.290;2023-03-24T04:37:24;53.61;52.59;54.65;;
48148;Laerm;29352;48.708;9.290;2023-03-24T04:39:55;53.59;52.47;54.65;;
48148;Laerm;29352;48.708;9.290;2023-03-24T04:42:40;53.51;52.16;54.62;;
48148;Laerm;29352;48.708;9.290;2023-03-24T04:45:08;53.48;52.22;54.65;;
48148;Laerm;29352;48.708;9.290;2023-03-24T04:47:51;53.60;52.47;54.65;;
48148;Laerm;29352;48.708;9.290;2023-03-24T04:53:03;53.72;52.47;54.90;;
48148;Laerm;29352;48.708;9.290;2023-03-24T04:58:02;53.95;52.71;55.04;;
48148;Laerm;29352;48.708;9.290;2023-03-24T05:00:29;54.01;52.88;55.20;;
48148;Laerm;29352;48.708;9.290;2023-03-24T05:02:56;53.76;52.53;54.80;;
48148;Laerm;29352;48.708;9.290;2023-03-24T05:05:22;53.59;52.35;54.69;;
48148;Laerm;29352;48.708;9.290;2023-03-24T05:07:47;53.51;52.47;54.62;;
48148;Laerm;29352;48.708;9.290;2023-03-24T05:10:14;53.47;52.35;54.58;;
48148;Laerm;29352;48.708;9.290;2023-03-24T05:12:41;53.47;52.35;54.43;;
48148;Laerm;29352;48.708;9.290;2023-03-24T05:15:06;53.45;52.22;54.80;;
48148;Laerm;29352;48.708;9.290;2023-03-24T05:17:33;53.44;52.35;54.51;;
48148;Laerm;29352;48.708;9.290;2023-03-24T05:19:58;53.43;52.29;54.43;;
48148;Laerm;29352;48.708;9.290;2023-03-24T05:22:23;53.43;52.35;54.43;;
48148;Laerm;29352;48.708;9.290;2023-03-24T05:24:49;53.44;52.09;54.39;;
48148;Laerm;29352;48.708;9.290;2023-03-24T05:27:14;53.44;52.29;54.43;;
48148;Laerm;29352;48.708;9.290;2023-03-24T05:29:40;53.44;52.35;54.47;;
48148;Laerm;29352;48.708;9.290;2023-03-24T05:32:05;53.43;52.16;54.47;;
48148;Laerm;29352;48.708;9.290;2023-03-24T05:34:31;53.42;52.29;54.51;;
48148;Laerm;29352;48.708;9.290;2023-03-24T05:36:56;53.42;52.22;54.31;;
48148;Laerm;29352;48.708;9.290;2023-03-24T05:39:22;53.41;52.35;54.27;;
48148;Laerm;29352;48.708;9.290;2023-03-24T05:41:47;53.42;52.22;54.43;;
48148;Laerm;29352;48.708;9.290;2023-03-24T05:44:13;53.53;52.16;54.43;;
48148;Laerm;29352;48.708;9.290;2023-03-24T05:46:38;53.82;52.53;55.27;;
48148;Laerm;29352;48.708;9.290;2023-03-24T05:49:03;54.11;53.04;55.33;;
48148;Laerm;29352;48.708;9.290;2023-03-24T05:51:29;54.18;53.09;55.33;;
48148;Laerm;29352;48.708;9.290;2023-03-24T05:53:54;54.08;52.98;55.30;;
48148;Laerm;29352;48.708;9.290;2023-03-24T05:56:20;54.08;52.76;55.11;;
48148;Laerm;29352;48.708;9.290;2023-03-24T05:58:45;54.12;53.09;55.14;;
48148;Laerm;29352;48.708;9.290;2023-03-24T06:01:11;54.20;53.19;55.39;;
48148;Laerm;29352;48.708;9.290;2023-03-24T06:03:37;54.19;53.14;55.27;;
48148;Laerm;29352;48.708;9.290;2023-03-24T06:06:07;54.20;53.14;55.33;;
48148;Laerm;29352;48.708;9.290;2023-03-24T06:08:34;54.21;53.14;55.42;;
48148;Laerm;29352;48.708;9.290;2023-03-24T06:11:02;54.24;53.14;55.36;;
48148;Laerm;29352;48.708;9.290;2023-03-24T06:13:29;54.22;53.09;55.20;;
48148;Laerm;29352;48.708;9.290;2023-03-24T06:15:55;54.21;53.14;55.30;;
48148;Laerm;29352;48.708;9.290;2023-03-24T06:18:26;54.21;53.09;55.30;;
48148;Laerm;29352;48.708;9.290;2023-03-24T06:20:53;54.21;53.04;55.33;;
48148;Laerm;29352;48.708;9.290;2023-03-24T06:23:22;54.17;53.14;55.23;;
48148;Laerm;29352;48.708;9.290;2023-03-24T06:25:54;54.19;53.09;55.57;;
48148;Laerm;29352;48.708;9.290;2023-03-24T06:28:21;54.19;53.19;55.17;;
48148;Laerm;29352;48.708;9.290;2023-03-24T06:30:47;54.19;53.14;55.20;;
48148;Laerm;29352;48.708;9.290;2023-03-24T06:33:14;54.20;53.09;55.42;;
48148;Laerm;29352;48.708;9.290;2023-03-24T06:35:40;54.21;52.93;55.20;;
48148;Laerm;29352;48.708;9.290;2023-03-24T06:38:06;54.21;53.19;55.36;;
48148;Laerm;29352;48.708;9.290;2023-03-24T06:40:33;54.21;52.98;55.20;;
48148;Laerm;29352;48.708;9.290;2023-03-24T06:43:00;54.21;53.04;55.20;;
48148;Laerm;29352;48.708;9.290;2023-03-24T06:45:26;54.21;52.76;55.36;;
48148;Laerm;29352;48.708;9.290;2023-03-24T06:47:52;54.20;53.19;55.30;;
48148;Laerm;29352;48.708;9.290;2023-03-24T06:50:23;54.21;53.19;55.17;;
48148;Laerm;29352;48.708;9.290;2023-03-24T06:53:00;54.20;53.14;55.27;;
48148;Laerm;29352;48.708;9.290;2023-03-24T06:55:26;54.18;53.19;55.17;;
48148;Laerm;29352;48.708;9.290;2023-03-24T06:57:52;54.17;53.19;55.14;;
48148;Laerm;29352;48.708;9.290;2023-03-24T07:00:18;54.19;52.98;55.17;;
48148;Laerm;29352;48.708;9.290;2023-03-24T07:02:44;54.18;53.14;55.20;;
48148;Laerm;29352;48.708;9.290;2023-03-24T07:05:10;54.18;53.19;55.20;;
48148;Laerm;29352;48.708;9.290;2023-03-24T07:07:37;54.18;53.04;55.20;;
48148;Laerm;29352;48.708;9.290;2023-03-24T07:10:06;54.16;53.04;55.23;;
48148;Laerm;29352;48.708;9.290;2023-03-24T07:12:31;55.89;51.82;83.46;;
48148;Laerm;29352;48.708;9.290;2023-03-24T07:14:57;54.52;51.89;71.45;;
48148;Laerm;29352;48.708;9.290;2023-03-24T07:17:23;53.54;51.22;62.36;;
48148;Laerm;29352;48.708;9.290;2023-03-24T07:19:48;53.36;49.99;75.92;;
48148;Laerm;29352;48.708;9.290;2023-03-24T07:22:14;52.24;49.92;68.35;;
48148;Laerm;29352;48.708;9.290;2023-03-24T07:24:39;51.65;49.46;53.49;;
48148;Laerm;29352;48.708;9.290;2023-03-24T07:27:05;51.42;48.81;62.75;;
48148;Laerm;29352;48.708;9.290;2023-03-24T07:29:31;51.47;48.81;63.87;;
48148;Laerm;29352;48.708;9.290;2023-03-24T07:31:56;51.39;48.81;54.83;;
48148;Laerm;29352;48.708;9.290;2023-03-24T07:34:27;51.22;48.05;52.93;;
48148;Laerm;29352;48.708;9.290;2023-03-24T07:39:19;51.13;15.00;53.14;;
48148;Laerm;29352;48.708;9.290;2023-03-24T07:41:45;51.16;15.00;71.29;;
48148;Laerm;29352;48.708;9.290;2023-03-24T07:44:11;51.02;48.37;67.55;;
48148;Laerm;29352;48.708;9.290;2023-03-24T07:46:38;50.79;43.90;56.79;;
48148;Laerm;29352;48.708;9.290;2023-03-24T07:49:03;50.87;47.12;55.30;;
48148;Laerm;29352;48.708;9.290;2023-03-24T07:51:28;50.82;47.70;52.76;;
48148;Laerm;29352;48.708;9.290;2023-03-24T07:53:54;50.79;47.88;64.52;;
48148;Laerm;29352;48.708;9.290;2023-03-24T07:56:20;50.63;47.70;52.71;;
48148;Laerm;29352;48.708;9.290;2023-03-24T07:58:46;50.55;15.00;53.49;;
48148;Laerm;29352;48.708;9.290;2023-03-24T08:01:12;18.92;15.00;46.91;;
48148;Laerm;29352;48.708;9.290;2023-03-24T08:03:38;15.00;15.00;15.00;;
48148;Laerm;29352;48.708;9.290;2023-03-24T08:06:08;15.00;15.00;15.00;;
48148;Laerm;29352;48.708;9.290;2023-03-24T08:08:35;44.09;15.00;52.03;;
48148;Laerm;29352;48.708;9.290;2023-03-24T08:11:03;50.10;42.93;52.98;;
48148;Laerm;29352;48.708;9.290;2023-03-24T08:13:29;50.57;15.00;53.49;;
48148;Laerm;29352;48.708;9.290;2023-03-24T08:15:55;49.55;15.00;52.47;;
48148;Laerm;29352;48.708;9.290;2023-03-24T08:18:22;48.74;15.00;52.65;;
48148;Laerm;29352;48.708;9.290;2023-03-24T08:20:54;37.44;15.00;51.75;;
48148;Laerm;29352;48.708;9.290;2023-03-24T08:23:20;45.05;15.00;52.65;;
48148;Laerm;29352;48.708;9.290;2023-03-24T08:25:48;49.80;15.00;53.24;;
48148;Laerm;29352;48.708;9.290;2023-03-24T08:28:15;48.98;15.00;53.72;;
48148;Laerm;29352;48.708;9.290;2023-03-24T08:30:41;51.23;15.00;54.23;;
48148;Laerm;29352;48.708;9.290;2023-03-24T08:33:16;52.39;48.05;54.31;;
48148;Laerm;29352;48.708;9.290;2023-03-24T08:35:41;52.70;49.92;55.51;;
48148;Laerm;29352;48.708;9.290;2023-03-24T08:38:09;52.30;15.00;54.58;;
48148;Laerm;29352;48.708;9.290;2023-03-24T08:40:40;52.12;50.53;53.24;;
48148;Laerm;29352;48.708;9.290;2023-03-24T08:43:10;52.15;50.62;53.39;;
48148;Laerm;29352;48.708;9.290;2023-03-24T08:45:37;52.18;50.43;53.44;;
48148;Laerm;29352;48.708;9.290;2023-03-24T08:48:06;52.13;50.62;58.58;;
48148;Laerm;29352;48.708;9.290;2023-03-24T08:50:36;52.04;50.53;53.77;;
48148;Laerm;29352;48.708;9.290;2023-03-24T08:53:03;52.70;50.71;64.62;;
48148;Laerm;29352;48.708;9.290;2023-03-24T08:55:30;53.25;50.98;63.95;;
48148;Laerm;29352;48.708;9.290;2023-03-24T08:57:56;53.12;50.53;62.56;;
48148;Laerm;29352;48.708;9.290;2023-03-24T09:00:22;52.68;50.71;65.33;;
48148;Laerm;29352;48.708;9.290;2023-03-24T09:02:52;52.58;51.03;58.90;;
48148;Laerm;29352;48.708;9.290;2023-03-24T09:05:21;53.38;50.71;66.01;;
48148;Laerm;29352;48.708;9.290;2023-03-24T09:07:49;52.92;51.06;64.72;;
48148;Laerm;29352;48.708;9.290;2023-03-24T09:10:15;53.09;51.22;63.12;;
48148;Laerm;29352;48.708;9.290;2023-03-24T09:12:43;53.16;51.14;63.32;;
48148;Laerm;29352;48.708;9.290;2023-03-24T09:15:11;53.28;51.22;67.59;;
48148;Laerm;29352;48.708;9.290;2023-03-24T09:17:37;53.38;51.14;64.02;;
48148;Laerm;29352;48.708;9.290;2023-03-24T09:20:07;53.33;51.30;63.85;;
48148;Laerm;29352;48.708;9.290;2023-03-24T09:22:38;53.27;50.62;61.96;;
48148;Laerm;29352;48.708;9.290;2023-03-24T09:25:06;53.42;50.89;65.58;;
48148;Laerm;29352;48.708;9.290;2023-03-24T09:27:32;53.86;51.30;68.62;;
48148;Laerm;29352;48.708;9.290;2023-03-24T09:29:57;53.24;51.38;65.30;;
48148;Laerm;29352;48.708;9.290;2023-03-24T09:32:23;53.61;51.46;67.47;;
48148;Laerm;29352;48.708;9.290;2023-03-24T09:34:49;53.21;51.30;60.98;;
48148;Laerm;29352;48.708;9.290;2023-03-24T09:37:14;53.16;51.61;65.52;;
48148;Laerm;29352;48.708;9.290;2023-03-24T09:39:40;53.05;51.61;65.76;;
48148;Laerm;29352;48.708;9.290;2023-03-24T09:42:06;52.79;51.53;63.29;;
48148;Laerm;29352;48.708;9.290;2023-03-24T09:44:45;52.88;51.53;59.84;;
48148;Laerm;29352;48.708;9.290;2023-03-24T09:47:38;53.21;51.81;55.69;;
48148;Laerm;29352;48.708;9.290;2023-03-24T09:50:20;53.56;52.09;56.91;;
48148;Laerm;29352;48.708;9.290;2023-03-24T09:52:55;53.87;52.47;61.10;;
48148;Laerm;29352;48.708;9.290;2023-03-24T09:55:27;54.01;52.76;59.47;;
48148;Laerm;29352;48.708;9.290;2023-03-24T09:58:02;53.99;52.82;57.74;;
48148;Laerm;29352;48.708;9.290;2023-03-24T10:00:35;54.15;52.47;59.16;;
48148;Laerm;29352;48.708;9.290;2023-03-24T10:03:18;54.27;53.14;58.07;;
48148;Laerm;29352;48.708;9.290;2023-03-24T10:05:59;54.39;53.14;58.21;;
48148;Laerm;29352;48.708;9.290;2023-03-24T10:08:36;54.47;53.29;58.16;;
48148;Laerm;29352;48.708;9.290;2023-03-24T10:16:42;54.40;53.39;57.08;;
48148;Laerm;29352;48.708;9.290;2023-03-24T10:28:49;54.31;52.98;55.86;;
48148;Laerm;29352;48.708;9.290;2023-03-24T10:31:32;54.31;53.14;55.60;;
48148;Laerm;29352;48.708;9.290;2023-03-24T10:33:59;54.33;53.24;56.33;;
48148;Laerm;29352;48.708;9.290;2023-03-24T10:36:26;54.28;52.98;55.63;;
48148;Laerm;29352;48.708;9.290;2023-03-24T10:38:53;54.30;53.24;55.94;;
48148;Laerm;29352;48.708;9.290;2023-03-24T10:41:22;54.27;53.24;56.66;;
48148;Laerm;29352;48.708;9.290;2023-03-24T10:43:55;54.25;53.24;55.57;;
48148;Laerm;29352;48.708;9.290;2023-03-24T10:46:26;54.21;53.14;55.30;;
48148;Laerm;29352;48.708;9.290;2023-03-24T10:49:17;54.18;53.09;55.69;;
48148;Laerm;29352;48.708;9.290;2023-03-24T10:51:50;54.18;52.98;55.39;;
48148;Laerm;29352;48.708;9.290;2023-03-24T10:54:26;54.16;52.95;55.07;;
48148;Laerm;29352;48.708;9.290;2023-03-24T10:59:38;54.15;53.14;55.39;;
48148;Laerm;29352;48.708;9.290;2023-03-24T11:02:20;54.13;53.14;55.48;;
48148;Laerm;29352;48.708;9.290;2023-03-24T11:05:00;54.14;53.04;55.39;;
48148;Laerm;29352;48.708;9.290;2023-03-24T11:07:44;54.13;52.82;55.11;;
48148;Laerm;29352;48.708;9.290;2023-03-24T11:13:00;54.06;52.98;55.11;;
48148;Laerm;29352;48.708;9.290;2023-03-24T11:15:34;54.03;52.93;55.14;;
48148;Laerm;29352;48.708;9.290;2023-03-24T11:20:40;54.04;52.88;55.17;;
48148;Laerm;29352;48.708;9.290;2023-03-24T11:28:28;53.96;52.82;55.48;;
48148;Laerm;29352;48.708;9.290;2023-03-24T11:31:07;53.98;52.82;55.17;;
48148;Laerm;29352;48.708;9.290;2023-03-24T11:33:44;53.93;52.65;55.91;;
48148;Laerm;29352;48.708;9.290;2023-03-24T11:39:21;53.89;52.53;55.04;;
48148;Laerm;29352;48.708;9.290;2023-03-24T11:42:13;53.86;52.76;55.11;;
48148;Laerm;29352;48.708;9.290;2023-03-24T11:44:50;53.79;52.59;54.94;;
48148;Laerm;29352;48.708;9.290;2023-03-24T11:47:35;53.76;52.59;56.78;;
48148;Laerm;29352;48.708;9.290;2023-03-24T11:53:02;53.72;52.59;54.80;;
48148;Laerm;29352;48.708;9.290;2023-03-24T11:55:56;53.75;52.65;54.90;;
48148;Laerm;29352;48.708;9.290;2023-03-24T12:01:21;53.76;52.53;55.51;;
48148;Laerm;29352;48.708;9.290;2023-03-24T12:07:09;53.76;52.71;55.01;;
48148;Laerm;29352;48.708;9.290;2023-03-24T12:23:57;53.66;52.47;54.69;;
48148;Laerm;29352;48.708;9.290;2023-03-24T12:26:32;53.65;52.29;55.89;;
48148;Laerm;29352;48.708;9.290;2023-03-24T12:29:24;53.65;52.59;54.65;;
48148;Laerm;29352;48.708;9.290;2023-03-24T12:35:09;53.61;52.35;54.69;;
48148;Laerm;29352;48.708;9.290;2023-03-24T12:38:19;53.62;52.41;55.07;;
48148;Laerm;29352;48.708;9.290;2023-03-24T12:44:00;53.60;52.41;54.65;;
48148;Laerm;29352;48.708;9.290;2023-03-24T12:55:24;53.61;52.41;54.59;;
48148;Laerm;29352;48.708;9.290;2023-03-24T12:58:09;53.60;52.41;54.62;;
48148;Laerm;29352;48.708;9.290;2023-03-24T13:01:06;53.59;52.29;54.54;;
48148;Laerm;29352;48.708;9.290;2023-03-24T13:03:45;53.60;52.35;54.83;;
48148;Laerm;29352;48.708;9.290;2023-03-24T13:12:32;53.62;52.35;54.54;;
48148;Laerm;29352;48.708;9.290;2023-03-24T13:20:38;53.63;52.47;54.80;;
48148;Laerm;29352;48.708;9.290;2023-03-24T13:23:51;53.62;52.41;54.87;;
48148;Laerm;29352;48.708;9.290;2023-03-24T13:26:36;53.60;52.47;54.97;;
48148;Laerm;29352;48.708;9.290;2023-03-24T13:30:19;53.59;52.53;54.62;;
48148;Laerm;29352;48.708;9.290;2023-03-24T13:37:53;53.59;52.47;54.83;;
48148;Laerm;29352;48.708;9.290;2023-03-24T13:40:26;53.59;52.53;54.62;;
48148;Laerm;29352;48.708;9.290;2023-03-24T13:43:05;53.59;52.53;54.54;;
48148;Laerm;29352;48.708;9.290;2023-03-24T13:45:51;53.61;52.41;54.73;;
48148;Laerm;29352;48.708;9.290;2023-03-24T13:48:34;53.64;52.59;54.65;;
48148;Laerm;29352;48.708;9.290;2023-03-24T13:51:29;53.65;52.65;54.69;;
48148;Laerm;29352;48.708;9.290;2023-03-24T13:53:57;53.66;52.47;54.80;;
48148;Laerm;29352;48.708;9.290;2023-03-24T13:56:26;53.66;52.53;54.69;;
48148;Laerm;29352;48.708;9.290;2023-03-24T14:01:40;53.63;52.41;54.62;;
48148;Laerm;29352;48.708;9.290;2023-03-24T14:09:23;53.61;52.58;54.65;;
48148;Laerm;29352;48.708;9.290;2023-03-24T14:14:31;53.59;52.41;54.69;;
48148;Laerm;29352;48.708;9.290;2023-03-24T14:19:31;53.60;52.41;54.73;;
48148;Laerm;29352;48.708;9.290;2023-03-24T14:22:25;53.61;52.47;54.65;;
48148;Laerm;29352;48.708;9.290;2023-03-24T14:25:03;53.61;52.65;54.80;;
48148;Laerm;29352;48.708;9.290;2023-03-24T14:27:34;53.60;52.41;54.65;;
48148;Laerm;29352;48.708;9.290;2023-03-24T14:30:25;53.61;52.53;54.65;;
48148;Laerm;29352;48.708;9.290;2023-03-24T14:33:00;53.61;52.41;54.58;;
48148;Laerm;29352;48.708;9.290;2023-03-24T14:35:43;53.62;52.59;54.56;;
48148;Laerm;29352;48.708;9.290;2023-03-24T14:40:44;53.63;52.53;54.65;;
48148;Laerm;29352;48.708;9.290;2023-03-24T14:43:22;53.63;52.53;54.83;;
48148;Laerm;29352;48.708;9.290;2023-03-24T14:46:01;53.64;52.35;54.73;;
48148;Laerm;29352;48.708;9.290;2023-03-24T14:48:35;53.64;52.22;54.62;;
48148;Laerm;29352;48.708;9.290;2023-03-24T14:51:21;53.65;52.47;54.76;;
48148;Laerm;29352;48.708;9.290;2023-03-24T14:53:56;53.64;52.59;54.90;;
48148;Laerm;29352;48.708;9.290;2023-03-24T14:56:28;53.64;52.35;54.83;;
48148;Laerm;29352;48.708;9.290;2023-03-24T14:59:08;53.65;52.47;54.65;;
48148;Laerm;29352;48.708;9.290;2023-03-24T15:01:40;53.65;52.59;54.69;;
48148;Laerm;29352;48.708;9.290;2023-03-24T15:04:10;53.64;52.41;54.80;;
48148;Laerm;29352;48.708;9.290;2023-03-24T15:06:47;53.67;52.47;54.80;;
48148;Laerm;29352;48.708;9.290;2023-03-24T15:09:17;53.87;52.53;55.04;;
48148;Laerm;29352;48.708;9.290;2023-03-24T15:11:46;53.98;52.93;54.94;;
48148;Laerm;29352;48.708;9.290;2023-03-24T15:14:21;53.94;52.71;55.04;;
48148;Laerm;29352;48.708;9.290;2023-03-24T15:16:57;53.93;52.82;54.90;;
48148;Laerm;29352;48.708;9.290;2023-03-24T15:19:29;53.91;52.76;55.04;;
48148;Laerm;29352;48.708;9.290;2023-03-24T15:24:31;53.90;52.88;54.97;;
48148;Laerm;29352;48.708;9.290;2023-03-24T15:29:40;53.89;52.82;55.04;;
48148;Laerm;29352;48.708;9.290;2023-03-24T15:32:18;53.90;52.71;54.94;;
48148;Laerm;29352;48.708;9.290;2023-03-24T15:34:56;53.89;52.88;54.87;;
48148;Laerm;29352;48.708;9.290;2023-03-24T15:37:38;53.90;52.93;55.04;;
48148;Laerm;29352;48.708;9.290;2023-03-24T15:42:55;53.92;52.93;54.90;;
48148;Laerm;29352;48.708;9.290;2023-03-24T15:48:23;54.07;52.98;55.04;;
48148;Laerm;29352;48.708;9.290;2023-03-24T15:51:13;54.10;52.88;55.20;;
48148;Laerm;29352;48.708;9.290;2023-03-24T15:53:55;54.10;52.98;55.14;;
48148;Laerm;29352;48.708;9.290;2023-03-24T15:56:30;54.02;52.65;55.14;;
48148;Laerm;29352;48.708;9.290;2023-03-24T15:59:06;53.89;52.76;57.70;;
48148;Laerm;29352;48.708;9.290;2023-03-24T16:01:34;53.84;52.71;55.48;;
48148;Laerm;29352;48.708;9.290;2023-03-24T16:04:13;53.80;52.65;57.12;;
48148;Laerm;29352;48.708;9.290;2023-03-24T16:06:47;53.67;52.47;55.66;;
48148;Laerm;29352;48.708;9.290;2023-03-24T16:09:22;53.57;52.35;63.18;;
48148;Laerm;29352;48.708;9.290;2023-03-24T16:11:52;53.36;52.22;59.25;;
48148;Laerm;29352;48.708;9.290;2023-03-24T16:14:20;53.15;51.96;58.76;;
48148;Laerm;29352;48.708;9.290;2023-03-24T16:16:46;53.14;51.68;66.60;;
48148;Laerm;29352;48.708;9.290;2023-03-24T16:19:11;53.79;51.46;78.09;;
48148;Laerm;29352;48.708;9.290;2023-03-24T16:21:37;53.61;51.68;66.45;;
48148;Laerm;29352;48.708;9.290;2023-03-24T16:24:03;53.71;51.30;72.38;;
48148;Laerm;29352;48.708;9.290;2023-03-24T16:26:31;53.38;51.89;68.59;;
48148;Laerm;29352;48.708;9.290;2023-03-24T16:29:15;53.45;52.09;65.43;;
48148;Laerm;29352;48.708;9.290;2023-03-24T16:31:43;53.47;52.16;60.80;;
48148;Laerm;29352;48.708;9.290;2023-03-24T16:34:09;53.37;52.35;54.69;;
48148;Laerm;29352;48.708;9.290;2023-03-24T16:36:35;53.49;52.35;58.00;;
48148;Laerm;29352;48.708;9.290;2023-03-24T16:39:05;53.70;52.41;57.22;;
48148;Laerm;29352;48.708;9.290;2023-03-24T16:41:34;53.78;52.65;58.10;;
48148;Laerm;29352;48.708;9.290;2023-03-24T16:43:59;53.87;52.65;58.67;;
48148;Laerm;29352;48.708;9.290;2023-03-24T16:48:52;54.06;52.88;57.26;;
48148;Laerm;29352;48.708;9.290;2023-03-24T16:53:45;53.99;52.93;55.07;;
48148;Laerm;29352;48.708;9.290;2023-03-24T16:56:17;54.02;52.93;55.91;;
48148;Laerm;29352;48.708;9.290;2023-03-24T16:58:44;54.09;52.98;55.94;;
48148;Laerm;29352;48.708;9.290;2023-03-24T17:03:58;54.17;52.98;56.91;;
48148;Laerm;29352;48.708;9.290;2023-03-24T17:06:28;54.16;52.47;58.12;;
48148;Laerm;29352;48.708;9.290;2023-03-24T17:08:54;54.11;50.80;57.86;;
48148;Laerm;29352;48.708;9.290;2023-03-24T17:11:28;54.10;46.45;55.30;;